createdAt,value
2023-05-06T00:00:14.868Z,77.48
2023-05-06T00:01:14.873Z,77.33
2023-05-06T00:02:14.895Z,77.18
2023-05-06T00:03:14.986Z,77.26
2023-05-06T00:04:14.860Z,77.03
2023-05-06T00:05:14.839Z,76.79
2023-05-06T00:06:14.820Z,76.52
2023-05-06T00:07:14.824Z,76.29
2023-05-06T00:08:14.793Z,76.11
2023-05-06T00:09:14.794Z,76.09
2023-05-06T00:10:14.810Z,76.07
2023-05-06T00:11:14.778Z,76.10
2023-05-06T00:12:14.811Z,75.96
2023-05-06T00:13:14.935Z,75.77
2023-05-06T00:14:14.755Z,75.58
2023-05-06T00:15:14.750Z,75.78
2023-05-06T00:16:15.594Z,75.96
2023-05-06T00:17:14.744Z,75.71
2023-05-06T00:18:14.745Z,75.55
2023-05-06T00:19:14.731Z,75.39
2023-05-06T00:20:14.720Z,75.53
2023-05-06T00:21:14.699Z,76.08
2023-05-06T00:22:14.699Z,76.27
2023-05-06T00:23:14.689Z,76.12
2023-05-06T00:24:14.698Z,76.09
2023-05-06T00:25:14.704Z,75.95
2023-05-06T00:26:14.744Z,75.98
2023-05-06T00:27:14.804Z,76.24
2023-05-06T00:28:14.882Z,77.30
2023-05-06T00:29:14.995Z,77.73
2023-05-06T00:30:14.956Z,77.63
2023-05-06T00:31:15.094Z,77.44
2023-05-06T00:32:15.040Z,77.07
2023-05-06T00:33:15.120Z,76.88
2023-05-06T00:34:15.153Z,76.71
2023-05-06T00:35:15.214Z,76.89
2023-05-06T00:36:15.292Z,76.64
2023-05-06T00:37:15.330Z,76.50
2023-05-06T00:38:15.440Z,76.54
2023-05-06T00:39:15.460Z,76.49
2023-05-06T00:40:15.535Z,76.43
2023-05-06T00:41:15.594Z,76.41
2023-05-06T00:42:15.669Z,76.31
2023-05-06T00:43:15.771Z,76.14
2023-05-06T00:44:15.807Z,75.94
2023-05-06T00:45:15.956Z,75.79
2023-05-06T00:46:15.987Z,75.78
2023-05-06T00:47:15.983Z,75.82
2023-05-06T00:48:16.166Z,75.99
2023-05-06T00:49:16.101Z,76.35
2023-05-06T00:50:16.154Z,76.32
2023-05-06T00:51:16.212Z,76.20
2023-05-06T00:52:16.264Z,76.32
2023-05-06T00:53:16.332Z,76.22
2023-05-06T00:54:16.380Z,76.16
2023-05-06T00:55:16.445Z,76.34
2023-05-06T00:56:17.231Z,76.37
2023-05-06T00:57:16.509Z,76.24
2023-05-06T00:58:16.495Z,76.27
2023-05-06T00:59:16.490Z,76.39
2023-05-06T01:00:16.497Z,76.43
2023-05-06T01:01:16.685Z,76.44
2023-05-06T01:02:16.567Z,76.40
2023-05-06T01:03:16.587Z,76.41
2023-05-06T01:04:16.494Z,76.42
2023-05-06T01:05:16.610Z,76.36
2023-05-06T01:06:16.484Z,76.25
2023-05-06T01:07:16.499Z,76.16
2023-05-06T01:08:16.521Z,76.10
2023-05-06T01:09:16.518Z,76.10
2023-05-06T01:10:16.487Z,76.06
2023-05-06T01:11:16.489Z,76.07
2023-05-06T01:12:16.476Z,76.00
2023-05-06T01:13:16.559Z,76.00
2023-05-06T01:14:16.488Z,76.10
2023-05-06T01:15:16.523Z,76.03
2023-05-06T01:16:16.490Z,75.88
2023-05-06T01:17:16.588Z,75.92
2023-05-06T01:18:16.463Z,75.98
2023-05-06T01:19:16.457Z,75.97
2023-05-06T01:20:16.508Z,75.85
2023-05-06T01:21:16.437Z,75.75
2023-05-06T01:22:16.451Z,75.86
2023-05-06T01:23:16.433Z,75.90
2023-05-06T01:24:16.434Z,75.96
2023-05-06T01:25:16.456Z,76.21
2023-05-06T01:26:16.477Z,76.23
2023-05-06T01:27:16.538Z,76.30
2023-05-06T01:28:16.628Z,76.17
2023-05-06T01:29:16.683Z,76.16
2023-05-06T01:30:16.784Z,75.97
2023-05-06T01:31:16.887Z,75.94
2023-05-06T01:32:16.897Z,76.04
2023-05-06T01:33:17.119Z,75.92
2023-05-06T01:34:16.999Z,76.01
2023-05-06T01:35:17.047Z,76.08
2023-05-06T01:36:17.143Z,75.99
2023-05-06T01:37:17.277Z,76.14
2023-05-06T01:38:17.266Z,76.15
2023-05-06T01:39:17.329Z,76.17
2023-05-06T01:40:17.398Z,76.04
2023-05-06T01:41:17.467Z,76.39
2023-05-06T01:42:17.567Z,76.51
2023-05-06T01:43:17.590Z,76.51
2023-05-06T01:44:18.335Z,76.46
2023-05-06T01:45:17.719Z,76.57
2023-05-06T01:46:17.793Z,76.80
2023-05-06T01:47:17.839Z,76.86
2023-05-06T01:48:17.861Z,76.91
2023-05-06T01:49:17.913Z,76.86
2023-05-06T01:50:17.969Z,76.87
2023-05-06T01:51:18.025Z,76.82
2023-05-06T01:52:18.116Z,76.77
2023-05-06T01:53:18.067Z,76.47
2023-05-06T01:54:18.096Z,76.40
2023-05-06T01:55:18.087Z,76.35
2023-05-06T01:56:18.127Z,76.58
2023-05-06T01:57:18.149Z,76.43
2023-05-06T01:58:18.162Z,76.44
2023-05-06T01:59:18.171Z,76.29
2023-05-06T02:00:18.205Z,76.18
2023-05-06T02:01:18.233Z,76.01
2023-05-06T02:02:18.206Z,75.94
2023-05-06T02:03:18.319Z,75.94
2023-05-06T02:04:18.244Z,76.14
2023-05-06T02:05:18.285Z,76.19
2023-05-06T02:06:18.273Z,75.98
2023-05-06T02:07:18.294Z,75.90
2023-05-06T02:08:18.348Z,75.86
2023-05-06T02:09:18.311Z,75.76
2023-05-06T02:10:18.327Z,75.46
2023-05-06T02:11:18.343Z,75.12
2023-05-06T02:12:18.373Z,75.05
2023-05-06T02:13:18.535Z,75.40
2023-05-06T02:14:18.411Z,75.33
2023-05-06T02:15:18.445Z,75.26
2023-05-06T02:16:18.579Z,75.20
2023-05-06T02:17:18.478Z,75.24
2023-05-06T02:18:18.574Z,75.31
2023-05-06T02:19:18.540Z,75.29
2023-05-06T02:20:18.568Z,75.27
2023-05-06T02:21:18.731Z,75.18
2023-05-06T02:22:18.625Z,75.23
2023-05-06T02:23:18.653Z,75.36
2023-05-06T02:24:18.688Z,75.47
2023-05-06T02:25:18.730Z,75.55
2023-05-06T02:26:18.756Z,75.50
2023-05-06T02:27:18.756Z,75.61
2023-05-06T02:28:18.804Z,75.65
2023-05-06T02:29:18.814Z,75.64
2023-05-06T02:30:18.868Z,75.67
2023-05-06T02:31:18.943Z,75.67
2023-05-06T02:32:18.906Z,76.55
2023-05-06T02:33:18.967Z,76.83
2023-05-06T02:34:18.962Z,77.27
2023-05-06T02:35:18.989Z,77.55
2023-05-06T02:36:19.023Z,77.42
2023-05-06T02:37:19.181Z,77.25
2023-05-06T02:38:19.298Z,77.14
2023-05-06T02:39:19.099Z,77.29
2023-05-06T02:40:19.163Z,77.43
2023-05-06T02:41:19.173Z,77.58
2023-05-06T02:42:19.230Z,77.74
2023-05-06T02:43:19.239Z,78.01
2023-05-06T02:44:19.290Z,77.80
2023-05-06T02:45:19.397Z,77.69
2023-05-06T02:46:19.452Z,77.62
2023-05-06T02:47:19.502Z,77.38
2023-05-06T02:48:19.533Z,77.22
2023-05-06T02:49:19.601Z,76.96
2023-05-06T02:50:19.683Z,76.82
2023-05-06T02:51:19.695Z,76.82
2023-05-06T02:52:19.752Z,76.98
2023-05-06T02:53:19.898Z,76.98
2023-05-06T02:54:19.889Z,77.26
2023-05-06T02:55:20.052Z,77.40
2023-05-06T02:56:20.061Z,77.49
2023-05-06T02:57:20.124Z,77.60
2023-05-06T02:58:20.171Z,77.68
2023-05-06T02:59:20.216Z,77.88
2023-05-06T03:00:20.264Z,78.01
2023-05-06T03:01:20.370Z,77.90
2023-05-06T03:02:20.384Z,77.58
2023-05-06T03:03:20.448Z,77.43
2023-05-06T03:04:20.545Z,77.38
2023-05-06T03:05:20.572Z,77.62
2023-05-06T03:06:20.611Z,77.74
2023-05-06T03:07:20.662Z,77.72
2023-05-06T03:08:20.682Z,78.03
2023-05-06T03:09:20.845Z,77.92
2023-05-06T03:10:20.811Z,77.81
2023-05-06T03:11:20.776Z,77.69
2023-05-06T03:12:20.811Z,77.52
2023-05-06T03:13:20.875Z,77.42
2023-05-06T03:14:22.028Z,77.31
2023-05-06T03:15:20.913Z,77.28
2023-05-06T03:16:20.915Z,77.14
2023-05-06T03:17:20.925Z,77.05
2023-05-06T03:18:20.947Z,77.31
2023-05-06T03:19:20.972Z,77.23
2023-05-06T03:20:20.989Z,76.96
2023-05-06T03:21:21.039Z,76.84
2023-05-06T03:22:21.049Z,76.76
2023-05-06T03:23:21.063Z,76.65
2023-05-06T03:24:21.092Z,76.60
2023-05-06T03:25:21.197Z,76.94
2023-05-06T03:26:21.127Z,77.10
2023-05-06T03:27:21.182Z,77.35
2023-05-06T03:28:21.248Z,77.68
2023-05-06T03:29:21.186Z,77.79
2023-05-06T03:30:21.225Z,77.67
2023-05-06T03:31:21.309Z,77.84
2023-05-06T03:32:21.220Z,77.98
2023-05-06T03:33:21.260Z,77.93
2023-05-06T03:34:21.276Z,77.80
2023-05-06T03:35:21.324Z,77.75
2023-05-06T03:36:21.333Z,77.68
2023-05-06T03:37:21.351Z,77.66
2023-05-06T03:38:21.400Z,77.53
2023-05-06T03:39:21.432Z,77.37
2023-05-06T03:40:21.502Z,77.29
2023-05-06T03:41:21.721Z,77.26
2023-05-06T03:42:21.565Z,77.16
2023-05-06T03:43:21.572Z,77.15
2023-05-06T03:44:21.595Z,76.97
2023-05-06T03:45:21.652Z,77.14
2023-05-06T03:46:21.707Z,77.57
2023-05-06T03:47:21.671Z,77.67
2023-05-06T03:48:21.722Z,77.86
2023-05-06T03:49:21.708Z,77.87
2023-05-06T03:50:21.829Z,77.88
2023-05-06T03:51:22.688Z,77.86
2023-05-06T03:52:21.806Z,77.62
2023-05-06T03:53:21.849Z,77.36
2023-05-06T03:54:21.852Z,77.15
2023-05-06T03:55:21.874Z,76.87
2023-05-06T03:56:21.911Z,76.63
2023-05-06T03:57:21.931Z,76.53
2023-05-06T03:58:21.938Z,76.40
2023-05-06T03:59:21.950Z,76.35
2023-05-06T04:00:22.000Z,76.39
2023-05-06T04:01:21.994Z,76.32
2023-05-06T04:02:22.091Z,76.37
2023-05-06T04:03:22.135Z,76.41
2023-05-06T04:04:22.058Z,76.32
2023-05-06T04:05:22.106Z,76.32
2023-05-06T04:06:22.083Z,76.37
2023-05-06T04:07:22.111Z,76.50
2023-05-06T04:08:22.154Z,76.65
2023-05-06T04:09:22.166Z,76.92
2023-05-06T04:10:22.187Z,77.23
2023-05-06T04:11:22.174Z,77.19
2023-05-06T04:12:22.215Z,77.31
2023-05-06T04:13:22.440Z,77.16
2023-05-06T04:14:22.296Z,76.97
2023-05-06T04:15:22.307Z,76.90
2023-05-06T04:16:22.367Z,76.93
2023-05-06T04:17:22.353Z,76.94
2023-05-06T04:18:22.387Z,76.83
2023-05-06T04:19:22.427Z,76.88
2023-05-06T04:20:22.476Z,76.82
2023-05-06T04:21:22.555Z,76.93
2023-05-06T04:22:22.560Z,76.90
2023-05-06T04:23:22.605Z,76.94
2023-05-06T04:24:22.649Z,77.08
2023-05-06T04:25:23.525Z,77.04
2023-05-06T04:26:22.723Z,76.94
2023-05-06T04:27:22.779Z,76.91
2023-05-06T04:28:22.851Z,77.04
2023-05-06T04:29:23.003Z,76.78
2023-05-06T04:30:23.000Z,76.65
2023-05-06T04:31:23.058Z,76.60
2023-05-06T04:32:23.075Z,76.35
2023-05-06T04:33:23.116Z,76.27
2023-05-06T04:34:23.533Z,76.19
2023-05-06T04:35:23.144Z,76.19
2023-05-06T04:36:23.163Z,76.17
2023-05-06T04:37:23.175Z,76.09
2023-05-06T04:38:23.236Z,76.13
2023-05-06T04:39:23.314Z,76.09
2023-05-06T04:40:23.393Z,76.30
2023-05-06T04:41:23.444Z,76.12
2023-05-06T04:42:23.483Z,76.00
2023-05-06T04:43:23.481Z,75.93
2023-05-06T04:44:23.530Z,75.83
2023-05-06T04:45:23.687Z,75.95
2023-05-06T04:46:23.674Z,76.05
2023-05-06T04:47:23.733Z,75.95
2023-05-06T04:48:23.750Z,75.89
2023-05-06T04:49:23.818Z,76.04
2023-05-06T04:50:23.862Z,76.05
2023-05-06T04:51:23.976Z,76.02
2023-05-06T04:52:24.068Z,76.04
2023-05-06T04:53:24.074Z,75.99
2023-05-06T04:54:24.149Z,76.16
2023-05-06T04:55:24.211Z,76.14
2023-05-06T04:56:24.273Z,76.28
2023-05-06T04:57:24.339Z,76.21
2023-05-06T04:58:24.402Z,76.13
2023-05-06T04:59:24.474Z,76.15
2023-05-06T05:00:24.548Z,76.13
2023-05-06T05:01:24.749Z,76.36
2023-05-06T05:02:24.778Z,76.23
2023-05-06T05:03:24.834Z,76.56
2023-05-06T05:04:24.779Z,76.42
2023-05-06T05:05:24.837Z,76.43
2023-05-06T05:06:24.897Z,76.25
2023-05-06T05:07:24.964Z,76.08
2023-05-06T05:08:25.022Z,75.97
2023-05-06T05:09:25.084Z,76.00
2023-05-06T05:10:25.158Z,75.84
2023-05-06T05:11:25.220Z,75.71
2023-05-06T05:12:25.267Z,75.68
2023-05-06T05:13:25.293Z,75.79
2023-05-06T05:14:25.315Z,76.01
2023-05-06T05:15:25.363Z,75.97
2023-05-06T05:16:25.470Z,75.93
2023-05-06T05:17:25.623Z,76.01
2023-05-06T05:18:25.585Z,76.16
2023-05-06T05:19:25.628Z,76.35
2023-05-06T05:20:25.683Z,76.03
2023-05-06T05:21:25.772Z,76.01
2023-05-06T05:22:25.795Z,75.98
2023-05-06T05:23:25.853Z,75.80
2023-05-06T05:24:25.901Z,75.62
2023-05-06T05:25:25.938Z,75.43
2023-05-06T05:26:26.004Z,75.31
2023-05-06T05:27:26.060Z,75.43
2023-05-06T05:28:26.105Z,75.38
2023-05-06T05:29:26.455Z,75.24
2023-05-06T05:30:26.215Z,75.36
2023-05-06T05:31:26.348Z,75.47
2023-05-06T05:32:26.361Z,75.56
2023-05-06T05:33:26.483Z,75.37
2023-05-06T05:34:26.412Z,75.33
2023-05-06T05:35:26.467Z,75.37
2023-05-06T05:36:26.522Z,75.85
2023-05-06T05:37:26.567Z,75.83
2023-05-06T05:38:26.621Z,75.58
2023-05-06T05:39:26.676Z,75.18
2023-05-06T05:40:26.730Z,75.11
2023-05-06T05:41:26.829Z,75.03
2023-05-06T05:42:26.819Z,75.07
2023-05-06T05:43:26.861Z,75.16
2023-05-06T05:44:26.896Z,74.97
2023-05-06T05:45:26.963Z,74.80
2023-05-06T05:46:27.022Z,74.67
2023-05-06T05:47:27.119Z,74.69
2023-05-06T05:48:27.103Z,74.46
2023-05-06T05:49:27.302Z,74.05
2023-05-06T05:50:27.206Z,74.12
2023-05-06T05:51:27.236Z,74.14
2023-05-06T05:52:27.293Z,74.18
2023-05-06T05:53:27.341Z,74.19
2023-05-06T05:54:27.391Z,74.25
2023-05-06T05:55:27.495Z,74.12
2023-05-06T05:56:27.497Z,74.21
2023-05-06T05:57:27.561Z,74.29
2023-05-06T05:58:27.601Z,74.19
2023-05-06T05:59:27.654Z,73.85
2023-05-06T06:00:27.691Z,73.59
2023-05-06T06:01:27.767Z,73.33
2023-05-06T06:02:27.925Z,73.30
2023-05-06T06:03:27.948Z,73.25
2023-05-06T06:04:27.957Z,73.12
2023-05-06T06:05:28.052Z,72.98
2023-05-06T06:06:28.000Z,72.97
2023-05-06T06:07:28.062Z,73.08
2023-05-06T06:08:28.125Z,73.27
2023-05-06T06:09:28.148Z,73.25
2023-05-06T06:10:28.202Z,73.23
2023-05-06T06:11:28.245Z,73.42
2023-05-06T06:12:28.324Z,73.28
2023-05-06T06:13:29.116Z,73.67
2023-05-06T06:14:28.409Z,73.56
2023-05-06T06:15:28.458Z,73.93
2023-05-06T06:16:28.576Z,73.80
2023-05-06T06:17:28.665Z,73.97
2023-05-06T06:18:28.638Z,74.00
2023-05-06T06:19:28.680Z,73.83
2023-05-06T06:20:28.830Z,73.68
2023-05-06T06:21:28.824Z,73.51
2023-05-06T06:22:28.859Z,73.55
2023-05-06T06:23:28.906Z,73.79
2023-05-06T06:24:28.956Z,73.71
2023-05-06T06:25:29.274Z,73.54
2023-05-06T06:26:29.085Z,73.62
2023-05-06T06:27:29.169Z,73.49
2023-05-06T06:28:29.213Z,73.31
2023-05-06T06:29:29.260Z,73.28
2023-05-06T06:30:29.318Z,73.21
2023-05-06T06:31:29.468Z,73.01
2023-05-06T06:32:29.443Z,72.90
2023-05-06T06:33:29.450Z,72.83
2023-05-06T06:34:29.499Z,72.76
2023-05-06T06:35:29.547Z,72.58
2023-05-06T06:36:29.578Z,72.48
2023-05-06T06:37:29.657Z,72.45
2023-05-06T06:38:29.681Z,72.37
2023-05-06T06:39:29.778Z,72.46
2023-05-06T06:40:29.787Z,72.31
2023-05-06T06:41:29.824Z,72.23
2023-05-06T06:42:29.871Z,72.41
2023-05-06T06:43:29.928Z,72.38
2023-05-06T06:44:29.962Z,72.50
2023-05-06T06:45:30.106Z,72.30
2023-05-06T06:46:30.066Z,72.16
2023-05-06T06:47:30.099Z,72.11
2023-05-06T06:48:30.125Z,71.89
2023-05-06T06:49:30.158Z,71.88
2023-05-06T06:50:30.181Z,71.47
2023-05-06T06:51:30.221Z,71.60
2023-05-06T06:52:30.237Z,71.44
2023-05-06T06:53:30.476Z,71.33
2023-05-06T06:54:30.368Z,71.24
2023-05-06T06:55:30.356Z,71.34
2023-05-06T06:56:30.366Z,71.45
2023-05-06T06:57:30.401Z,71.38
2023-05-06T06:58:30.427Z,71.34
2023-05-06T06:59:30.451Z,71.26
2023-05-06T07:00:30.489Z,71.42
2023-05-06T07:01:30.585Z,71.53
2023-05-06T07:02:30.572Z,71.11
2023-05-06T07:03:30.576Z,71.15
2023-05-06T07:04:30.627Z,70.94
2023-05-06T07:05:30.552Z,70.85
2023-05-06T07:06:30.596Z,71.08
2023-05-06T07:07:30.646Z,71.11
2023-05-06T07:08:30.708Z,70.95
2023-05-06T07:09:30.839Z,70.91
2023-05-06T07:10:30.796Z,70.62
2023-05-06T07:11:30.826Z,70.80
2023-05-06T07:12:30.907Z,70.75
2023-05-06T07:13:30.898Z,70.36
2023-05-06T07:14:30.920Z,70.39
2023-05-06T07:15:30.951Z,70.08
2023-05-06T07:16:31.005Z,69.48
2023-05-06T07:17:31.007Z,69.41
2023-05-06T07:18:31.050Z,69.57
2023-05-06T07:19:31.083Z,69.47
2023-05-06T07:20:31.119Z,69.25
2023-05-06T07:21:31.118Z,69.41
2023-05-06T07:22:31.112Z,69.26
2023-05-06T07:23:32.048Z,69.35
2023-05-06T07:24:31.218Z,69.27
2023-05-06T07:25:31.387Z,68.92
2023-05-06T07:26:31.253Z,68.83
2023-05-06T07:27:31.254Z,68.62
2023-05-06T07:28:31.262Z,68.47
2023-05-06T07:29:31.280Z,67.95
2023-05-06T07:30:31.283Z,67.87
2023-05-06T07:31:31.364Z,67.77
2023-05-06T07:32:31.312Z,67.20
2023-05-06T07:33:31.285Z,67.07
2023-05-06T07:34:31.283Z,67.09
2023-05-06T07:35:31.272Z,67.17
2023-05-06T07:36:31.270Z,66.87
2023-05-06T07:37:31.265Z,67.00
2023-05-06T07:38:31.261Z,66.33
2023-05-06T07:39:31.293Z,66.21
2023-05-06T07:40:31.259Z,66.18
2023-05-06T07:41:31.345Z,66.38
2023-05-06T07:42:31.249Z,65.86
2023-05-06T07:43:31.264Z,65.81
2023-05-06T07:44:31.277Z,65.61
2023-05-06T07:45:31.266Z,65.60
2023-05-06T07:46:31.357Z,65.51
2023-05-06T07:47:31.491Z,66.08
2023-05-06T07:48:31.336Z,66.23
2023-05-06T07:49:31.251Z,66.13
2023-05-06T07:50:31.259Z,66.43
2023-05-06T07:51:31.253Z,66.45
2023-05-06T07:52:31.243Z,66.16
2023-05-06T07:53:31.216Z,65.84
2023-05-06T07:54:31.196Z,65.61
2023-05-06T07:55:32.696Z,65.44
2023-05-06T07:56:31.116Z,65.26
2023-05-06T07:57:31.218Z,64.90
2023-05-06T07:58:31.073Z,64.88
2023-05-06T07:59:31.038Z,64.83
2023-05-06T08:00:30.986Z,64.64
2023-05-06T08:01:30.936Z,64.99
2023-05-06T08:02:30.933Z,65.16
2023-05-06T08:03:31.048Z,65.02
2023-05-06T08:04:30.856Z,64.43
2023-05-06T08:05:30.773Z,65.06
2023-05-06T08:06:30.731Z,64.36
2023-05-06T08:07:30.692Z,65.15
2023-05-06T08:08:30.641Z,65.29
2023-05-06T08:09:30.599Z,64.51
2023-05-06T08:10:30.559Z,64.19
2023-05-06T08:11:30.523Z,64.26
2023-05-06T08:12:30.471Z,64.38
2023-05-06T08:13:30.549Z,64.18
2023-05-06T08:14:30.384Z,63.81
2023-05-06T08:15:30.376Z,63.51
2023-05-06T08:16:31.658Z,63.93
2023-05-06T08:17:30.340Z,64.30
2023-05-06T08:18:30.346Z,63.89
2023-05-06T08:19:30.201Z,63.00
2023-05-06T08:20:30.164Z,63.08
2023-05-06T08:21:30.135Z,62.41
2023-05-06T08:22:30.150Z,61.73
2023-05-06T08:23:30.125Z,61.39
2023-05-06T08:24:30.097Z,60.96
2023-05-06T08:25:30.087Z,60.78
2023-05-06T08:26:30.051Z,60.89
2023-05-06T08:27:30.055Z,61.30
2023-05-06T08:28:30.047Z,60.87
2023-05-06T08:29:30.059Z,61.27
2023-05-06T08:30:30.058Z,61.28
2023-05-06T08:31:30.035Z,61.70
2023-05-06T08:32:30.054Z,61.22
2023-05-06T08:33:30.037Z,61.50
2023-05-06T08:34:30.012Z,61.40
2023-05-06T08:35:30.028Z,61.11
2023-05-06T08:36:30.042Z,61.36
2023-05-06T08:37:30.039Z,61.22
2023-05-06T08:38:30.077Z,61.05
2023-05-06T08:39:30.084Z,61.26
2023-05-06T08:40:30.096Z,60.36
2023-05-06T08:41:30.103Z,60.42
2023-05-06T08:42:31.127Z,59.62
2023-05-06T08:43:30.135Z,60.03
2023-05-06T08:44:30.123Z,60.41
2023-05-06T08:45:30.176Z,61.40
2023-05-06T08:46:30.115Z,62.16
2023-05-06T08:47:30.182Z,61.23
2023-05-06T08:48:30.169Z,61.76
2023-05-06T08:49:30.197Z,60.93
2023-05-06T08:50:30.200Z,60.81
2023-05-06T08:51:30.228Z,61.05
2023-05-06T08:52:30.257Z,61.00
2023-05-06T08:53:30.262Z,60.37
2023-05-06T08:54:30.253Z,60.53
2023-05-06T08:55:30.259Z,60.20
2023-05-06T08:56:30.279Z,59.49
2023-05-06T08:57:30.229Z,59.46
2023-05-06T08:58:30.223Z,59.14
2023-05-06T08:59:30.253Z,59.96
2023-05-06T09:00:30.208Z,60.39
2023-05-06T09:01:30.313Z,61.65
2023-05-06T09:02:30.343Z,61.79
2023-05-06T09:03:30.382Z,61.62
2023-05-06T09:04:30.236Z,61.46
2023-05-06T09:05:30.245Z,61.13
2023-05-06T09:06:30.280Z,61.08
2023-05-06T09:07:30.317Z,60.90
2023-05-06T09:08:30.322Z,60.60
2023-05-06T09:09:30.292Z,60.37
2023-05-06T09:10:30.255Z,60.14
2023-05-06T09:11:30.288Z,59.47
2023-05-06T09:12:30.285Z,59.50
2023-05-06T09:13:30.302Z,59.08
2023-05-06T09:14:30.264Z,59.07
2023-05-06T09:15:30.244Z,59.18
2023-05-06T09:16:30.238Z,58.63
2023-05-06T09:17:30.289Z,58.09
2023-05-06T09:18:30.143Z,58.11
2023-05-06T09:19:30.216Z,58.16
2023-05-06T09:20:30.164Z,57.67
2023-05-06T09:21:30.171Z,57.66
2023-05-06T09:22:30.169Z,57.66
2023-05-06T09:23:30.163Z,58.03
2023-05-06T09:24:30.150Z,58.28
2023-05-06T09:25:30.136Z,58.08
2023-05-06T09:26:30.145Z,58.34
2023-05-06T09:27:30.091Z,57.69
2023-05-06T09:28:30.073Z,57.22
2023-05-06T09:29:30.037Z,57.28
2023-05-06T09:30:29.999Z,57.66
2023-05-06T09:31:30.074Z,56.98
2023-05-06T09:32:29.997Z,57.04
2023-05-06T09:33:29.931Z,56.61
2023-05-06T09:34:29.895Z,57.07
2023-05-06T09:35:29.876Z,56.89
2023-05-06T09:36:29.864Z,57.31
2023-05-06T09:37:29.833Z,57.36
2023-05-06T09:38:29.808Z,57.25
2023-05-06T09:39:29.782Z,57.00
2023-05-06T09:40:29.758Z,57.02
2023-05-06T09:41:29.747Z,57.16
2023-05-06T09:42:29.711Z,57.33
2023-05-06T09:43:29.683Z,57.46
2023-05-06T09:44:29.674Z,57.48
2023-05-06T09:45:29.635Z,57.36
2023-05-06T09:46:29.652Z,57.74
2023-05-06T09:47:29.615Z,57.68
2023-05-06T09:48:29.556Z,57.63
2023-05-06T09:49:29.545Z,57.70
2023-05-06T09:50:29.497Z,57.79
2023-05-06T09:51:29.479Z,57.71
2023-05-06T09:52:29.478Z,58.08
2023-05-06T09:53:29.433Z,58.33
2023-05-06T09:54:29.429Z,58.15
2023-05-06T09:55:29.461Z,58.76
2023-05-06T09:56:29.435Z,59.38
2023-05-06T09:57:29.440Z,59.72
2023-05-06T09:58:29.432Z,59.98
2023-05-06T09:59:29.448Z,60.25
2023-05-06T10:00:29.482Z,60.20
2023-05-06T10:01:36.690Z,60.44
2023-05-06T10:02:29.671Z,60.72
2023-05-06T10:03:29.515Z,61.65
2023-05-06T10:04:29.489Z,61.64
2023-05-06T10:05:29.432Z,62.04
2023-05-06T10:06:29.141Z,62.11
2023-05-06T10:07:29.101Z,62.01
2023-05-06T10:08:29.034Z,62.26
2023-05-06T10:09:28.958Z,62.36
2023-05-06T10:10:28.922Z,62.56
2023-05-06T10:11:28.838Z,62.98
2023-05-06T10:12:28.822Z,62.48
2023-05-06T10:13:28.711Z,62.17
2023-05-06T10:14:28.650Z,62.13
2023-05-06T10:15:28.592Z,62.70
2023-05-06T10:16:28.623Z,62.76
2023-05-06T10:17:28.516Z,62.24
2023-05-06T10:18:28.863Z,62.23
2023-05-06T10:19:28.347Z,61.69
2023-05-06T10:20:28.309Z,61.68
2023-05-06T10:21:28.252Z,61.66
2023-05-06T10:22:28.158Z,61.28
2023-05-06T10:23:28.098Z,60.95
2023-05-06T10:24:28.035Z,60.89
2023-05-06T10:25:27.955Z,60.72
2023-05-06T10:26:28.295Z,60.49
2023-05-06T10:27:27.906Z,60.40
2023-05-06T10:28:31.429Z,60.35
2023-05-06T10:29:27.860Z,60.07
2023-05-06T10:30:27.758Z,60.05
2023-05-06T10:31:27.738Z,59.79
2023-05-06T10:32:27.658Z,59.16
2023-05-06T10:33:27.638Z,59.33
2023-05-06T10:34:27.527Z,59.08
2023-05-06T10:35:27.482Z,59.31
2023-05-06T10:36:27.407Z,59.00
2023-05-06T10:37:27.439Z,58.82
2023-05-06T10:38:27.267Z,58.71
2023-05-06T10:39:27.200Z,58.73
2023-05-06T10:40:27.121Z,57.90
2023-05-06T10:41:27.054Z,57.34
2023-05-06T10:42:26.989Z,56.38
2023-05-06T10:43:26.945Z,55.79
2023-05-06T10:44:26.883Z,56.46
2023-05-06T10:45:26.802Z,56.54
2023-05-06T10:46:26.800Z,55.36
2023-05-06T10:47:26.865Z,56.14
2023-05-06T10:48:26.782Z,56.09
2023-05-06T10:49:26.791Z,55.46
2023-05-06T10:50:26.798Z,55.01
2023-05-06T10:51:26.675Z,55.44
2023-05-06T10:52:26.668Z,55.21
2023-05-06T10:53:26.776Z,54.72
2023-05-06T10:54:26.645Z,55.54
2023-05-06T10:55:26.678Z,54.32
2023-05-06T10:56:26.602Z,54.89
2023-05-06T10:57:26.724Z,54.84
2023-05-06T10:58:26.543Z,54.94
2023-05-06T10:59:26.590Z,55.15
2023-05-06T11:00:26.600Z,55.28
2023-05-06T11:01:26.678Z,56.15
2023-05-06T11:02:26.632Z,56.19
2023-05-06T11:03:26.672Z,56.84
2023-05-06T11:04:26.506Z,56.05
2023-05-06T11:05:26.433Z,55.89
2023-05-06T11:06:26.363Z,56.33
2023-05-06T11:07:26.293Z,57.34
2023-05-06T11:08:26.272Z,56.90
2023-05-06T11:09:26.369Z,57.08
2023-05-06T11:10:26.200Z,56.95
2023-05-06T11:11:27.642Z,56.54
2023-05-06T11:12:26.156Z,56.35
2023-05-06T11:13:26.374Z,56.32
2023-05-06T11:14:26.123Z,56.97
2023-05-06T11:15:26.114Z,55.12
2023-05-06T11:16:26.190Z,56.37
2023-05-06T11:17:26.153Z,58.06
2023-05-06T11:18:26.148Z,58.69
2023-05-06T11:19:26.198Z,59.15
2023-05-06T11:20:26.198Z,58.63
2023-05-06T11:21:26.167Z,58.34
2023-05-06T11:22:26.163Z,58.82
2023-05-06T11:23:26.171Z,58.54
2023-05-06T11:24:26.226Z,59.54
2023-05-06T11:25:26.271Z,59.71
2023-05-06T11:26:26.169Z,59.92
2023-05-06T11:27:26.201Z,59.57
2023-05-06T11:28:26.215Z,60.86
2023-05-06T11:29:26.289Z,62.62
2023-05-06T11:30:26.279Z,62.30
2023-05-06T11:31:26.322Z,61.17
2023-05-06T11:32:26.369Z,61.02
2023-05-06T11:33:26.349Z,61.00
2023-05-06T11:34:26.352Z,60.79
2023-05-06T11:35:26.333Z,58.70
2023-05-06T11:36:26.336Z,58.80
2023-05-06T11:37:26.398Z,58.52
2023-05-06T11:38:26.396Z,58.16
2023-05-06T11:39:26.436Z,58.37
2023-05-06T11:40:26.421Z,57.54
2023-05-06T11:41:26.661Z,57.49
2023-05-06T11:42:26.465Z,57.55
2023-05-06T11:43:26.441Z,56.79
2023-05-06T11:44:26.465Z,57.19
2023-05-06T11:45:26.500Z,56.21
2023-05-06T11:46:26.480Z,56.52
2023-05-06T11:47:26.459Z,56.83
2023-05-06T11:48:26.467Z,56.28
2023-05-06T11:49:26.489Z,56.92
2023-05-06T11:50:26.505Z,56.33
2023-05-06T11:51:26.537Z,57.07
2023-05-06T11:52:26.820Z,57.73
2023-05-06T11:53:26.597Z,58.96
2023-05-06T11:54:26.526Z,59.32
2023-05-06T11:55:26.573Z,59.89
2023-05-06T11:56:26.603Z,60.21
2023-05-06T11:57:26.692Z,60.30
2023-05-06T11:58:26.741Z,59.21
2023-05-06T11:59:26.569Z,59.66
2023-05-06T12:00:26.571Z,59.37
2023-05-06T12:01:26.592Z,59.62
2023-05-06T12:02:26.715Z,59.44
2023-05-06T12:03:26.826Z,60.05
2023-05-06T12:04:26.703Z,60.31
2023-05-06T12:05:26.689Z,59.93
2023-05-06T12:06:26.726Z,60.75
2023-05-06T12:07:26.876Z,59.15
2023-05-06T12:08:28.246Z,59.40
2023-05-06T12:09:27.015Z,58.11
2023-05-06T12:10:26.956Z,57.70
2023-05-06T12:11:26.967Z,57.55
2023-05-06T12:12:26.966Z,57.33
2023-05-06T12:13:27.051Z,56.58
2023-05-06T12:14:26.993Z,57.31
2023-05-06T12:15:26.949Z,58.78
2023-05-06T12:16:26.994Z,58.56
2023-05-06T12:17:26.903Z,58.00
2023-05-06T12:18:26.870Z,55.43
2023-05-06T12:19:26.883Z,55.58
2023-05-06T12:20:26.893Z,55.74
2023-05-06T12:21:26.906Z,55.93
2023-05-06T12:22:26.940Z,55.81
2023-05-06T12:23:26.952Z,56.01
2023-05-06T12:24:26.954Z,55.90
2023-05-06T12:25:26.955Z,56.55
2023-05-06T12:26:26.961Z,56.27
2023-05-06T12:27:26.939Z,55.42
2023-05-06T12:28:26.923Z,55.39
2023-05-06T12:29:27.051Z,55.51
2023-05-06T12:30:26.925Z,56.12
2023-05-06T12:31:26.987Z,56.02
2023-05-06T12:32:26.937Z,56.28
2023-05-06T12:33:26.874Z,55.70
2023-05-06T12:34:26.876Z,55.15
2023-05-06T12:35:26.911Z,55.50
2023-05-06T12:36:26.927Z,55.80
2023-05-06T12:37:26.946Z,55.31
2023-05-06T12:38:26.956Z,54.71
2023-05-06T12:39:26.966Z,55.63
2023-05-06T12:40:26.932Z,54.98
2023-05-06T12:41:26.907Z,54.97
2023-05-06T12:42:26.998Z,54.59
2023-05-06T12:43:26.918Z,54.96
2023-05-06T12:44:26.931Z,56.11
2023-05-06T12:45:26.945Z,55.93
2023-05-06T12:46:27.063Z,55.62
2023-05-06T12:47:27.182Z,55.94
2023-05-06T12:48:26.911Z,56.36
2023-05-06T12:49:26.898Z,55.97
2023-05-06T12:50:27.259Z,55.96
2023-05-06T12:51:26.922Z,57.16
2023-05-06T12:52:26.906Z,55.81